»·PEaware :: AAL79 EGLL-KDFW

AAL79 :: EGLL-KDFW

FLIGHT INFORMATION

Flight Status: Arrived
Operator:
American Airlines
More flights by this operator :: More flights under this callsign
Pilot: Drew L. (13237)
Aircraft: Unknown
(B77W)
More flights by this aircraft type
Origin: EGLL Heathrow
United Kingdom
Destination: KDFW Dallas-Ft Worth Intl
United States
More flights between these airports :: More routes between these airports
Route: +WOBUN DTY SAPCO UN57 TNT UL28 PENIL BAGSO RESNO H5623 H5734 H5747 CUDDY N658A MT TVC BUU BDF SGF FSM RRNET SEEVR4
File this flight plan on PilotEdge
Remarks: PBN / A1B1C1D1L1O1S2 DOF / 180317 REG / N713SB EET / EISN0036 EGGX0058 CZQX0219 CZUL0448 CZYZ0605 KZMP0634 KZAU0659 KZKC0732 KZME0809 KZFW0827 OPR / AAL PER / D RALT / EIKN BGSF TALT / EGVN RMK / TCAS SIMBRIEF
Altitude:
(Current/Filed)
30,000ft
Speed:
(Current/Filed)
479kts
Departed: 17-Mar-18 10:52 AM
Arrived: 17-Mar-18 12:07 PM
Distance/Time
Traveled:
4116nm/1:14
Distance/Time
To Go:
Arrived

Flight Plot

Page will automatically refresh every two minutes.

Flight plan parsing failed; only flown route is shown


Map Options




Map Legend


Flown Route
Filed Route
Departure Airport
Arrival Airport
Navaid (VOR, NDB)
Fix

Horizontal Profiles

Position Reports

Time Latitude Longitude Heading Altitude Ground
Speed
17-Mar-18 10:50 38.953917 -91.823519 223 36206ft 441kts
17-Mar-18 10:51 38.856571 -91.917993 223 36028ft 438kts
17-Mar-18 10:52 38.759138 -92.012223 223 36023ft 437kts
17-Mar-18 10:53 38.662320 -92.105516 223 36028ft 435kts
17-Mar-18 10:54 38.581718 -92.182959 223 36030ft 435kts
17-Mar-18 10:55 38.468776 -92.291089 223 36030ft 433kts
17-Mar-18 10:56 38.372478 -92.382939 223 36032ft 432kts
17-Mar-18 10:57 38.291911 -92.459545 223 36035ft 432kts
17-Mar-18 10:58 38.178891 -92.566637 223 36038ft 438kts
17-Mar-18 10:59 38.081299 -92.658783 223 36041ft 437kts
17-Mar-18 11:00 37.999471 -92.735791 223 36048ft 438kts
17-Mar-18 11:01 37.902102 -92.827154 224 36049ft 434kts
17-Mar-18 11:02 37.805081 -92.917883 224 36048ft 433kts
17-Mar-18 11:03 37.707957 -93.008407 223 36050ft 433kts
17-Mar-18 11:04 37.611017 -93.098502 224 36051ft 433kts
17-Mar-18 11:05 37.513838 -93.188733 223 36047ft 432kts
17-Mar-18 11:06 37.416834 -93.278049 223 36051ft 432kts
17-Mar-18 11:07 37.313446 -93.356803 212 36051ft 445kts
17-Mar-18 11:08 37.196936 -93.412533 209 36050ft 446kts
17-Mar-18 11:09 37.081241 -93.467789 210 36051ft 445kts
17-Mar-18 11:10 36.965847 -93.523816 210 36055ft 443kts
17-Mar-18 11:11 36.851106 -93.579403 211 36055ft 442kts
17-Mar-18 11:12 36.737057 -93.634384 211 36057ft 439kts
17-Mar-18 11:13 36.622896 -93.689234 211 36058ft 438kts
17-Mar-18 11:14 36.509443 -93.743570 211 36057ft 437kts
17-Mar-18 11:15 36.396267 -93.797594 211 36069ft 434kts
17-Mar-18 11:16 36.283322 -93.851357 211 36069ft 433kts
17-Mar-18 11:17 36.170938 -93.904680 211 36073ft 433kts
17-Mar-18 11:18 36.058260 -93.957977 212 36069ft 432kts
17-Mar-18 11:19 35.946005 -94.010913 212 36058ft 432kts
17-Mar-18 11:20 35.833681 -94.063721 211 36057ft 432kts
17-Mar-18 11:21 35.720971 -94.116550 211 36058ft 432kts
17-Mar-18 11:22 35.608547 -94.169250 211 36060ft 433kts
17-Mar-18 11:23 35.495790 -94.221692 211 36061ft 431kts
17-Mar-18 11:24 35.385976 -94.277671 222 36061ft 414kts
17-Mar-18 11:25 35.299703 -94.366453 230 36059ft 404kts
17-Mar-18 11:26 35.215606 -94.458530 229 36061ft 405kts
17-Mar-18 11:27 35.131106 -94.549776 229 36060ft 406kts
17-Mar-18 11:28 35.046801 -94.641368 229 36059ft 406kts
17-Mar-18 11:29 34.962005 -94.732612 229 36059ft 406kts
17-Mar-18 11:30 34.877241 -94.823246 229 36061ft 406kts
17-Mar-18 11:31 34.791577 -94.913696 228 36061ft 409kts
17-Mar-18 11:32 34.704599 -95.002205 228 36059ft 407kts
17-Mar-18 11:33 34.617919 -95.090762 228 36056ft 407kts
17-Mar-18 11:34 34.530756 -95.179128 228 36055ft 408kts
17-Mar-18 11:35 34.443883 -95.267140 228 35848ft 397kts
17-Mar-18 11:36 34.360354 -95.351373 227 33799ft 390kts
17-Mar-18 11:37 34.275737 -95.436208 227 31442ft 414kts
17-Mar-18 11:38 34.185219 -95.526858 226 29200ft 417kts
17-Mar-18 11:39 34.096925 -95.614957 225 26956ft 405kts
17-Mar-18 11:40 34.011844 -95.699469 225 25358ft 381kts
17-Mar-18 11:41 33.933450 -95.777498 225 24229ft 355kts
17-Mar-18 11:42 33.857934 -95.852966 224 22464ft 350kts
17-Mar-18 11:43 33.783420 -95.926772 223 20774ft 344kts
17-Mar-18 11:44 33.709701 -95.999320 222 19095ft 339kts
17-Mar-18 11:45 33.637535 -96.070789 222 17414ft 335kts
17-Mar-18 11:46 33.565633 -96.141289 222 15710ft 332kts
17-Mar-18 11:47 33.494219 -96.211118 222 14175ft 326kts
17-Mar-18 11:48 33.429704 -96.280058 230 13252ft 302kts
17-Mar-18 11:49 33.374960 -96.356324 231 11855ft 299kts
17-Mar-18 11:50 33.326763 -96.430592 243 11189ft 269kts
17-Mar-18 11:51 33.300994 -96.513800 251 10128ft 259kts
17-Mar-18 11:52 33.285616 -96.597079 264 10013ft 262kts
17-Mar-18 11:53 33.281679 -96.685038 264 9325ft 262kts
17-Mar-18 11:54 33.277573 -96.771757 264 8119ft 258kts
17-Mar-18 11:55 33.271512 -96.854982 252 6862ft 244kts
17-Mar-18 11:56 33.245946 -96.922377 243 6392ft 199kts
17-Mar-18 11:57 33.225346 -96.978414 245 5537ft 177kts
17-Mar-18 11:58 33.205732 -97.032965 240 4490ft 176kts
17-Mar-18 11:59 33.161860 -97.050443 188 4069ft 167kts
17-Mar-18 12:00 33.115472 -97.053374 181 3667ft 167kts
17-Mar-18 12:01 33.069062 -97.053835 179 3295ft 166kts
17-Mar-18 12:02 33.022696 -97.054087 179 2814ft 166kts
17-Mar-18 12:03 32.977850 -97.054320 179 1930ft 154kts
17-Mar-18 12:04 32.935531 -97.054539 180 1128ft 151kts
17-Mar-18 12:05 32.899483 -97.054729 180 620ft 52kts
17-Mar-18 12:06 32.893981 -97.051511 91 620ft 24kts
17-Mar-18 12:07 32.897013 -97.048871 0 620ft 0kts

Navigation Log

Ident Type
Flight plan parsing failed, navigation log unavailable